createdAt,value
2023-02-14T00:02:06.553Z,101664.81
2023-02-14T00:04:34.787Z,101669.28
2023-02-14T00:07:02.338Z,101663.91
2023-02-14T00:09:29.957Z,101667.63
2023-02-14T00:11:57.464Z,101663.19
2023-02-14T00:14:44.074Z,101658.81
2023-02-14T00:17:11.609Z,101658.72
2023-02-14T00:19:39.219Z,101662.97
2023-02-14T00:22:06.822Z,101657.63
2023-02-14T00:24:34.413Z,101660.25
2023-02-14T00:27:02.026Z,101661.13
2023-02-14T00:29:33.026Z,101655.81
2023-02-14T00:32:00.734Z,101651.38
2023-02-14T00:34:28.999Z,101661.88
2023-02-14T00:36:56.532Z,101658.28
2023-02-14T00:39:24.030Z,101652.00
2023-02-14T00:41:51.700Z,101654.66
2023-02-14T00:44:20.406Z,101661.69
2023-02-14T00:46:49.267Z,101665.09
2023-02-14T00:49:16.785Z,101664.22
2023-02-14T00:51:44.304Z,101668.69
2023-02-14T00:54:11.801Z,101662.47
2023-02-14T00:56:39.325Z,101663.44
2023-02-14T00:59:06.870Z,101663.44
2023-02-14T01:01:34.416Z,101662.53
2023-02-14T01:04:03.302Z,101668.75
2023-02-14T01:06:30.881Z,101667.88
2023-02-14T01:08:58.697Z,101676.72
2023-02-14T01:11:27.758Z,101675.81
2023-02-14T01:13:58.259Z,101679.31
2023-02-14T01:16:27.597Z,101680.22
2023-02-14T01:18:55.456Z,101669.59
2023-02-14T01:21:26.012Z,101671.31
2023-02-14T01:23:56.622Z,101670.47
2023-02-14T01:26:26.054Z,101670.47
2023-02-14T01:28:53.801Z,101662.56
2023-02-14T01:31:23.762Z,101665.28
2023-02-14T01:33:52.155Z,101660.13
2023-02-14T01:36:22.067Z,101658.63
2023-02-14T01:38:53.318Z,101655.97
2023-02-14T01:41:21.606Z,101649.00
2023-02-14T01:43:55.709Z,101656.06
2023-02-14T01:46:23.644Z,101654.28
2023-02-14T01:48:51.982Z,101661.44
2023-02-14T01:51:21.023Z,101658.66
2023-02-14T01:53:49.736Z,101656.00
2023-02-14T01:56:22.462Z,101651.50
2023-02-14T01:58:56.117Z,101650.56
2023-02-14T02:01:24.567Z,101654.06
2023-02-14T02:03:55.347Z,101653.16
2023-02-14T02:06:27.061Z,101640.88
2023-02-14T02:09:04.345Z,101647.97
2023-02-14T02:11:33.288Z,101644.47
2023-02-14T02:14:00.827Z,101646.22
2023-02-14T02:16:48.960Z,101643.50
2023-02-14T02:19:49.767Z,101639.94
2023-02-14T02:22:47.463Z,101640.84
2023-02-14T02:25:30.383Z,101639.97
2023-02-14T02:28:19.796Z,101632.91
2023-02-14T02:31:14.872Z,101628.44
2023-02-14T02:34:14.896Z,101628.41
2023-02-14T02:37:11.652Z,101616.03
2023-02-14T02:39:54.383Z,101611.63
2023-02-14T02:42:35.013Z,101614.22
2023-02-14T02:45:12.060Z,101620.41
2023-02-14T02:47:45.383Z,101614.25
2023-02-14T02:50:41.164Z,101615.09
2023-02-14T02:53:18.482Z,101614.22
2023-02-14T02:56:10.369Z,101613.53
2023-02-14T02:58:41.019Z,101616.22
2023-02-14T03:01:12.531Z,101613.59
2023-02-14T03:03:59.742Z,101616.34
2023-02-14T03:06:27.223Z,101611.88
2023-02-14T03:08:56.000Z,101619.81
2023-02-14T03:11:25.939Z,101620.75
2023-02-14T03:14:21.352Z,101621.63
2023-02-14T03:17:00.084Z,101612.72
2023-02-14T03:19:55.547Z,101610.94
2023-02-14T03:22:32.966Z,101612.66
2023-02-14T03:25:09.197Z,101612.84
2023-02-14T03:27:42.501Z,101609.31
2023-02-14T03:30:18.802Z,101611.16
2023-02-14T03:32:51.411Z,101608.47
2023-02-14T03:35:24.882Z,101611.94
2023-02-14T03:37:57.939Z,101615.44
2023-02-14T03:40:32.063Z,101610.06
2023-02-14T03:43:05.128Z,101602.97
2023-02-14T03:45:36.398Z,101603.88
2023-02-14T03:48:08.878Z,101607.53
2023-02-14T03:50:38.952Z,101604.78
2023-02-14T03:53:09.901Z,101608.41
2023-02-14T03:55:42.737Z,101606.59
2023-02-14T03:58:17.059Z,101602.94
2023-02-14T04:00:48.519Z,101601.22
2023-02-14T04:03:18.685Z,101603.84
2023-02-14T04:05:52.161Z,101602.03
2023-02-14T04:08:23.753Z,101597.69
2023-02-14T04:10:53.352Z,101595.88
2023-02-14T04:13:21.008Z,101594.09
2023-02-14T04:15:48.773Z,101595.06
2023-02-14T04:18:45.539Z,101595.09
2023-02-14T04:21:13.042Z,101597.69
2023-02-14T04:23:40.550Z,101602.09
2023-02-14T04:26:09.353Z,101600.38
2023-02-14T04:28:36.953Z,101600.41
2023-02-14T04:31:06.606Z,101598.69
2023-02-14T04:33:35.086Z,101604.09
2023-02-14T04:36:02.751Z,101603.28
2023-02-14T04:38:30.196Z,101598.03
2023-02-14T04:40:57.899Z,101597.09
2023-02-14T04:43:26.992Z,101597.97
2023-02-14T04:45:54.431Z,101594.41
2023-02-14T04:48:21.940Z,101593.50
2023-02-14T04:50:52.763Z,101590.88
2023-02-14T04:53:20.635Z,101587.28
2023-02-14T04:55:50.270Z,101586.34
2023-02-14T04:58:18.041Z,101580.25
2023-02-14T05:00:46.910Z,101577.63
2023-02-14T05:03:14.444Z,101578.47
2023-02-14T05:05:41.932Z,101569.59
2023-02-14T05:08:09.526Z,101565.19
2023-02-14T05:10:37.007Z,101557.25
2023-02-14T05:13:04.577Z,101552.88
2023-02-14T05:15:33.693Z,101558.16
2023-02-14T05:18:02.869Z,101553.75
2023-02-14T05:20:30.511Z,101547.53
2023-02-14T05:22:59.888Z,101544.94
2023-02-14T05:25:27.355Z,101544.88
2023-02-14T05:27:54.873Z,101546.78
2023-02-14T05:30:26.528Z,101549.53
2023-02-14T05:32:54.906Z,101546.97
2023-02-14T05:35:24.071Z,101547.91
2023-02-14T05:37:51.591Z,101546.91
2023-02-14T05:40:19.533Z,101542.53
2023-02-14T05:42:47.043Z,101540.78
2023-02-14T05:45:14.649Z,101541.69
2023-02-14T05:47:42.318Z,101542.63
2023-02-14T05:50:10.680Z,101543.56
2023-02-14T05:52:39.562Z,101541.84
2023-02-14T05:55:08.381Z,101542.78
2023-02-14T05:57:36.068Z,101541.00
2023-02-14T06:00:05.445Z,101545.50
2023-02-14T06:02:33.120Z,101537.63
2023-02-14T06:05:00.660Z,101534.13
2023-02-14T06:07:28.120Z,101548.34
2023-02-14T06:09:57.119Z,101553.63
2023-02-14T06:12:24.661Z,101551.81
2023-02-14T06:14:52.254Z,101558.00
2023-02-14T06:17:19.736Z,101565.06
2023-02-14T06:19:48.525Z,101560.72
2023-02-14T06:22:16.110Z,101565.03
2023-02-14T06:24:43.578Z,101570.44
2023-02-14T06:27:12.367Z,101573.06
2023-02-14T06:29:39.818Z,101579.22
2023-02-14T06:32:07.502Z,101567.81
2023-02-14T06:34:35.434Z,101571.38
2023-02-14T06:37:02.977Z,101574.06
2023-02-14T06:39:30.678Z,101571.38
2023-02-14T06:41:58.206Z,101583.81
2023-02-14T06:44:27.059Z,101581.16
2023-02-14T06:46:54.536Z,101591.78
2023-02-14T06:49:22.212Z,101588.25
2023-02-14T06:51:49.660Z,101585.63
2023-02-14T06:54:17.270Z,101591.78
2023-02-14T06:56:44.912Z,101592.66
2023-02-14T06:59:12.408Z,101590.00
2023-02-14T07:01:41.274Z,101592.69
2023-02-14T07:04:08.856Z,101585.59
2023-02-14T07:06:36.872Z,101576.75
2023-02-14T07:09:04.583Z,101584.72
2023-02-14T07:11:32.031Z,101592.63
2023-02-14T07:13:59.556Z,101591.75
2023-02-14T07:16:27.060Z,101594.34
2023-02-14T07:18:55.966Z,101599.66
2023-02-14T07:21:23.431Z,101601.38
2023-02-14T07:23:50.885Z,101597.84
2023-02-14T07:26:18.895Z,101600.50
2023-02-14T07:28:46.549Z,101596.13
2023-02-14T07:31:14.245Z,101604.88
2023-02-14T07:33:41.890Z,101601.38
2023-02-14T07:36:11.741Z,101601.34
2023-02-14T07:38:39.388Z,101594.19
2023-02-14T07:41:07.140Z,101592.34
2023-02-14T07:43:40.510Z,101589.69
2023-02-14T07:46:08.440Z,101593.16
2023-02-14T07:48:36.005Z,101596.66
2023-02-14T07:51:03.785Z,101587.78
2023-02-14T07:53:32.748Z,101590.38
2023-02-14T07:56:00.314Z,101585.91
2023-02-14T07:58:27.882Z,101588.53
2023-02-14T08:00:55.950Z,101579.66
2023-02-14T08:03:23.450Z,101579.63
2023-02-14T08:05:56.922Z,101588.41
2023-02-14T08:08:26.213Z,101581.34
2023-02-14T08:10:55.075Z,101578.59
2023-02-14T08:13:22.735Z,101581.19
2023-02-14T08:16:06.036Z,101589.09
2023-02-14T08:18:35.838Z,101581.97
2023-02-14T08:21:04.140Z,101584.56
2023-02-14T08:23:31.709Z,101582.78
2023-02-14T08:26:00.853Z,101577.47
2023-02-14T08:28:29.279Z,101575.66
2023-02-14T08:30:57.197Z,101581.81
2023-02-14T08:33:24.703Z,101576.47
2023-02-14T08:35:53.026Z,101581.69
2023-02-14T08:38:20.682Z,101575.41
2023-02-14T08:40:48.334Z,101575.38
2023-02-14T08:43:17.155Z,101585.16
2023-02-14T08:45:44.910Z,101576.22
2023-02-14T08:48:13.648Z,101577.94
2023-02-14T08:50:41.634Z,101582.25
2023-02-14T08:53:10.428Z,101576.94
2023-02-14T08:55:39.136Z,101578.66
2023-02-14T08:58:08.606Z,101588.31
2023-02-14T09:00:37.487Z,101582.97
2023-02-14T09:03:14.852Z,101581.09
2023-02-14T09:05:43.689Z,101579.25
2023-02-14T09:08:11.231Z,101588.13
2023-02-14T09:10:38.782Z,101585.44
2023-02-14T09:13:06.364Z,101584.47
2023-02-14T09:15:43.407Z,101576.47
2023-02-14T09:18:10.958Z,101577.28
2023-02-14T09:20:46.462Z,101578.91
2023-02-14T09:23:13.959Z,101571.88
2023-02-14T09:25:46.615Z,101571.03
2023-02-14T09:28:23.560Z,101562.84
2023-02-14T09:30:54.454Z,101552.84
2023-02-14T09:33:22.412Z,101554.53
2023-02-14T09:35:50.009Z,101550.06
2023-02-14T09:38:17.475Z,101550.00
2023-02-14T09:40:45.661Z,101544.63
2023-02-14T09:43:22.116Z,101539.25
2023-02-14T09:45:55.380Z,101544.41
2023-02-14T09:48:30.371Z,101538.91
2023-02-14T09:51:03.119Z,101546.06
2023-02-14T09:53:34.158Z,101538.84
2023-02-14T09:56:14.434Z,101551.25
2023-02-14T09:58:50.555Z,101537.72
2023-02-14T10:01:23.855Z,101539.28
2023-02-14T10:04:07.507Z,101533.03
2023-02-14T10:06:49.120Z,101540.94
2023-02-14T10:09:41.176Z,101534.13
2023-02-14T10:12:15.536Z,101534.84
2023-02-14T10:14:43.816Z,101539.03
2023-02-14T10:17:17.752Z,101534.41
2023-02-14T10:19:49.737Z,101535.09
2023-02-14T10:22:20.247Z,101536.81
2023-02-14T10:24:53.442Z,101535.72
2023-02-14T10:27:31.062Z,101537.22
2023-02-14T10:29:58.833Z,101535.38
2023-02-14T10:32:32.828Z,101537.16
2023-02-14T10:35:06.860Z,101533.34
2023-02-14T10:37:53.128Z,101532.44
2023-02-14T10:40:42.163Z,101530.69
2023-02-14T10:43:20.383Z,101531.56
2023-02-14T10:46:01.378Z,101529.38
2023-02-14T10:48:39.739Z,101526.56
2023-02-14T10:51:16.363Z,101534.44
2023-02-14T10:53:54.802Z,101516.47
2023-02-14T10:56:27.862Z,101519.84
2023-02-14T10:58:57.445Z,101518.84
2023-02-14T11:01:26.101Z,101516.00
2023-02-14T11:04:03.622Z,101513.19
2023-02-14T11:06:31.323Z,101511.16
2023-02-14T11:08:59.412Z,101499.53
2023-02-14T11:11:31.585Z,101497.53
2023-02-14T11:13:59.366Z,101495.78
2023-02-14T11:16:31.963Z,101499.13
2023-02-14T11:19:21.037Z,101494.59
2023-02-14T11:21:50.529Z,101487.38
2023-02-14T11:24:20.269Z,101493.19
2023-02-14T11:26:49.474Z,101483.97
2023-02-14T11:29:25.792Z,101484.84
2023-02-14T11:31:53.614Z,101483.63
2023-02-14T11:34:32.223Z,101489.72
2023-02-14T11:37:00.125Z,101482.38
2023-02-14T11:39:31.616Z,101478.72
2023-02-14T11:42:03.973Z,101475.75
2023-02-14T11:44:33.158Z,101470.38
2023-02-14T11:47:21.258Z,101469.34
2023-02-14T11:49:58.405Z,101462.19
2023-02-14T11:52:29.574Z,101455.81
2023-02-14T11:54:58.583Z,101452.94
2023-02-14T11:57:32.330Z,101446.44
2023-02-14T12:00:05.244Z,101436.41
2023-02-14T12:02:38.933Z,101441.16
2023-02-14T12:05:20.243Z,101430.44
2023-02-14T12:07:49.851Z,101430.31
2023-02-14T12:10:21.755Z,101429.53
2023-02-14T12:12:51.587Z,101429.22
2023-02-14T12:15:26.367Z,101420.94
2023-02-14T12:18:01.497Z,101419.75
2023-02-14T12:20:40.389Z,101415.44
2023-02-14T12:23:16.156Z,101408.19
2023-02-14T12:25:49.346Z,101410.81
2023-02-14T12:28:21.542Z,101406.09
2023-02-14T12:30:50.298Z,101397.75
2023-02-14T12:33:21.637Z,101392.41
2023-02-14T12:36:01.523Z,101392.09
2023-02-14T12:38:40.916Z,101395.50
2023-02-14T12:41:20.664Z,101395.19
2023-02-14T12:43:50.630Z,101385.91
2023-02-14T12:46:30.397Z,101393.06
2023-02-14T12:49:22.448Z,101380.19
2023-02-14T12:51:58.822Z,101370.91
2023-02-14T12:54:43.484Z,101373.38
2023-02-14T12:57:23.379Z,101368.94
2023-02-14T13:00:04.332Z,101370.75
2023-02-14T13:02:53.500Z,101364.97
2023-02-14T13:05:25.116Z,101367.72
2023-02-14T13:08:07.024Z,101354.16
2023-02-14T13:10:48.808Z,101357.69
2023-02-14T13:13:23.674Z,101353.41
2023-02-14T13:15:59.674Z,101355.66
2023-02-14T13:18:36.864Z,101352.78
2023-02-14T13:21:07.396Z,101349.19
2023-02-14T13:23:41.076Z,101354.44
2023-02-14T13:26:12.710Z,101345.50
2023-02-14T13:28:46.385Z,101346.19
2023-02-14T13:31:15.047Z,101338.22
2023-02-14T13:33:46.064Z,101336.47
2023-02-14T13:36:15.416Z,101328.91
2023-02-14T13:38:48.992Z,101330.84
2023-02-14T13:41:17.593Z,101331.13
2023-02-14T13:43:54.877Z,101321.16
2023-02-14T13:46:38.626Z,101322.81
2023-02-14T13:49:24.789Z,101318.38
2023-02-14T13:51:54.880Z,101320.28
2023-02-14T13:54:32.587Z,101317.53
2023-02-14T13:57:01.420Z,101310.19
2023-02-14T13:59:31.944Z,101312.84
2023-02-14T14:02:34.993Z,101309.03
2023-02-14T14:05:22.464Z,101306.16
2023-02-14T14:08:33.950Z,101297.97
2023-02-14T14:11:04.438Z,101299.81
2023-02-14T14:14:02.069Z,101300.63
2023-02-14T14:16:33.137Z,101301.41
2023-02-14T14:19:04.600Z,101295.16
2023-02-14T14:21:34.635Z,101295.38
2023-02-14T14:24:15.935Z,101296.78
2023-02-14T14:26:47.521Z,101288.03
2023-02-14T14:29:20.624Z,101287.03
2023-02-14T14:31:55.198Z,101284.44
2023-02-14T14:34:25.574Z,101284.44
2023-02-14T14:37:03.081Z,101281.84
2023-02-14T14:39:32.267Z,101284.53
2023-02-14T14:42:09.639Z,101282.69
2023-02-14T14:44:46.106Z,101278.34
2023-02-14T14:47:18.541Z,101270.16
2023-02-14T14:49:46.434Z,101267.47
2023-02-14T14:52:27.257Z,101269.75
2023-02-14T14:54:54.890Z,101264.19
2023-02-14T14:57:23.856Z,101265.09
2023-02-14T14:59:51.556Z,101261.66
2023-02-14T15:02:23.894Z,101253.91
2023-02-14T15:04:51.514Z,101255.22
2023-02-14T15:07:21.107Z,101262.09
2023-02-14T15:09:48.685Z,101258.84
2023-02-14T15:12:39.189Z,101249.69
2023-02-14T15:15:10.920Z,101252.78
2023-02-14T15:17:40.065Z,101257.47
2023-02-14T15:20:11.194Z,101253.22
2023-02-14T15:22:44.164Z,101249.38
2023-02-14T15:25:14.610Z,101250.19
2023-02-14T15:27:43.164Z,101243.88
2023-02-14T15:30:25.097Z,101242.34
2023-02-14T15:32:54.463Z,101248.28
2023-02-14T15:35:25.984Z,101245.06
2023-02-14T15:37:54.652Z,101246.53
2023-02-14T15:40:26.332Z,101239.47
2023-02-14T15:42:56.558Z,101246.50
2023-02-14T15:45:31.606Z,101238.88
2023-02-14T15:48:00.927Z,101237.97
2023-02-14T15:50:31.255Z,101235.25
2023-02-14T15:53:04.806Z,101234.03
2023-02-14T15:55:33.412Z,101234.47
2023-02-14T15:58:03.777Z,101240.19
2023-02-14T16:00:33.442Z,101234.91
2023-02-14T16:03:05.733Z,101236.25
2023-02-14T16:05:33.168Z,101230.31
2023-02-14T16:08:03.766Z,101238.75
2023-02-14T16:10:33.464Z,101236.69
2023-02-14T16:13:02.954Z,101231.75
2023-02-14T16:15:33.526Z,101234.75
2023-02-14T16:18:06.940Z,101245.78
2023-02-14T16:20:41.286Z,101247.84
2023-02-14T16:23:17.472Z,101242.03
2023-02-14T16:25:45.480Z,101238.78
2023-02-14T16:28:13.929Z,101239.94
2023-02-14T16:30:44.288Z,101245.59
2023-02-14T16:33:17.416Z,101239.50
2023-02-14T16:35:45.775Z,101247.03
2023-02-14T16:38:16.095Z,101241.94
2023-02-14T16:40:46.001Z,101243.78
2023-02-14T16:43:15.253Z,101251.97
2023-02-14T16:45:44.646Z,101240.66
2023-02-14T16:48:12.226Z,101245.22
2023-02-14T16:50:41.261Z,101244.47
2023-02-14T16:53:15.304Z,101245.50
2023-02-14T16:55:42.820Z,101248.19
2023-02-14T16:58:10.340Z,101248.47
2023-02-14T17:00:39.403Z,101248.44
2023-02-14T17:03:08.498Z,101244.94
2023-02-14T17:05:36.586Z,101253.09
2023-02-14T17:08:05.727Z,101248.94
2023-02-14T17:10:34.458Z,101254.31
2023-02-14T17:13:03.376Z,101255.38
2023-02-14T17:15:32.697Z,101255.34
2023-02-14T17:18:03.794Z,101261.66
2023-02-14T17:20:32.908Z,101257.44
2023-02-14T17:23:00.427Z,101265.78
2023-02-14T17:25:27.882Z,101274.66
2023-02-14T17:27:56.342Z,101272.09
2023-02-14T17:30:24.401Z,101271.50
2023-02-14T17:32:51.909Z,101278.56
2023-02-14T17:35:19.856Z,101278.84
2023-02-14T17:37:49.354Z,101268.97
2023-02-14T17:40:16.865Z,101270.03
2023-02-14T17:42:45.121Z,101268.06
2023-02-14T17:45:12.712Z,101280.00
2023-02-14T17:47:43.209Z,101267.53
2023-02-14T17:50:11.278Z,101279.03
2023-02-14T17:52:38.813Z,101280.09
2023-02-14T17:55:09.027Z,101280.00
2023-02-14T17:57:36.663Z,101279.25
2023-02-14T18:00:05.848Z,101279.13
2023-02-14T18:02:33.627Z,101279.38
2023-02-14T18:05:01.249Z,101279.53
2023-02-14T18:07:28.885Z,101280.41
2023-02-14T18:09:56.401Z,101287.56
2023-02-14T18:12:25.311Z,101283.16
2023-02-14T18:14:55.147Z,101285.06
2023-02-14T18:17:22.674Z,101282.41
2023-02-14T18:19:50.201Z,101276.31
2023-02-14T18:22:17.733Z,101272.75
2023-02-14T18:24:45.203Z,101264.94
2023-02-14T18:27:15.736Z,101264.94
2023-02-14T18:29:44.596Z,101270.22
2023-02-14T18:32:12.058Z,101262.28
2023-02-14T18:34:39.590Z,101268.59
2023-02-14T18:37:07.082Z,101258.81
2023-02-14T18:39:34.723Z,101264.94
2023-02-14T18:42:02.206Z,101267.47
2023-02-14T18:44:33.279Z,101259.59
2023-02-14T18:47:08.987Z,101255.78
2023-02-14T18:49:36.517Z,101254.53
2023-02-14T18:52:04.870Z,101251.66
2023-02-14T18:54:32.328Z,101246.06
2023-02-14T18:56:59.791Z,101240.63
2023-02-14T18:59:27.236Z,101246.63
2023-02-14T19:01:54.695Z,101238.53
2023-02-14T19:04:23.537Z,101238.44
2023-02-14T19:06:51.038Z,101242.81
2023-02-14T19:09:19.026Z,101236.88
2023-02-14T19:11:47.031Z,101237.03
2023-02-14T19:14:14.592Z,101229.97
2023-02-14T19:16:49.985Z,101231.16
2023-02-14T19:19:18.196Z,101239.44
2023-02-14T19:21:46.999Z,101241.53
2023-02-14T19:24:16.310Z,101235.47
2023-02-14T19:26:44.506Z,101242.66
2023-02-14T19:29:14.450Z,101232.91
2023-02-14T19:31:43.686Z,101231.34
2023-02-14T19:34:17.496Z,101227.03
2023-02-14T19:36:44.984Z,101234.19
2023-02-14T19:39:14.745Z,101223.59
2023-02-14T19:41:42.357Z,101227.19
2023-02-14T19:44:13.646Z,101230.75
2023-02-14T19:46:42.767Z,101232.63
2023-02-14T19:49:14.289Z,101224.72
2023-02-14T19:51:42.507Z,101224.03
2023-02-14T19:54:10.580Z,101225.00
2023-02-14T19:56:41.675Z,101212.66
2023-02-14T19:59:10.248Z,101207.28
2023-02-14T20:01:41.269Z,101203.66
2023-02-14T20:04:12.003Z,101193.88
2023-02-14T20:06:39.481Z,101190.16
2023-02-14T20:09:08.377Z,101197.13
2023-02-14T20:11:39.262Z,101187.97
2023-02-14T20:14:09.537Z,101192.34
2023-02-14T20:16:38.159Z,101178.13
2023-02-14T20:19:07.861Z,101180.78
2023-02-14T20:21:35.705Z,101178.91
2023-02-14T20:24:05.332Z,101180.75
2023-02-14T20:26:35.162Z,101174.53
2023-02-14T20:29:05.870Z,101178.81
2023-02-14T20:31:35.080Z,101177.91
2023-02-14T20:34:02.962Z,101183.44
2023-02-14T20:36:30.574Z,101188.75
2023-02-14T20:38:59.654Z,101187.00
2023-02-14T20:41:27.851Z,101186.97
2023-02-14T20:43:55.787Z,101185.28
2023-02-14T20:46:23.813Z,101181.94
2023-02-14T20:48:54.046Z,101175.84
2023-02-14T20:51:22.403Z,101184.97
2023-02-14T20:53:49.845Z,101178.88
2023-02-14T20:56:18.011Z,101176.19
2023-02-14T20:58:45.506Z,101170.69
2023-02-14T21:01:15.213Z,101177.91
2023-02-14T21:03:46.535Z,101174.47
2023-02-14T21:06:16.018Z,101170.09
2023-02-14T21:08:44.351Z,101174.59
2023-02-14T21:11:14.856Z,101167.00
2023-02-14T21:13:42.364Z,101169.72
2023-02-14T21:16:11.633Z,101164.56
2023-02-14T21:18:39.824Z,101163.94
2023-02-14T21:21:09.275Z,101163.94
2023-02-14T21:23:38.047Z,101161.31
2023-02-14T21:26:05.573Z,101164.03
2023-02-14T21:28:33.384Z,101173.88
2023-02-14T21:31:04.968Z,101176.69
2023-02-14T21:33:33.299Z,101166.97
2023-02-14T21:36:06.782Z,101170.56
2023-02-14T21:38:34.316Z,101167.91
2023-02-14T21:41:05.067Z,101166.25
2023-02-14T21:43:34.722Z,101161.13
2023-02-14T21:46:05.026Z,101167.47
2023-02-14T21:48:50.332Z,101170.88
2023-02-14T21:51:18.005Z,101166.50
2023-02-14T21:53:46.049Z,101168.41
2023-02-14T21:56:19.575Z,101159.69
2023-02-14T21:58:47.889Z,101167.66
2023-02-14T22:01:16.574Z,101156.97
2023-02-14T22:03:44.438Z,101151.72
2023-02-14T22:06:13.069Z,101150.81
2023-02-14T22:08:41.300Z,101143.72
2023-02-14T22:11:09.980Z,101143.59
2023-02-14T22:13:39.169Z,101146.16
2023-02-14T22:16:08.303Z,101144.25
2023-02-14T22:18:35.952Z,101142.38
2023-02-14T22:21:04.852Z,101143.28
2023-02-14T22:23:33.052Z,101140.56
2023-02-14T22:26:09.574Z,101135.19
2023-02-14T22:28:37.072Z,101144.94
2023-02-14T22:31:06.285Z,101135.06
2023-02-14T22:33:34.001Z,101133.13
2023-02-14T22:36:02.268Z,101131.16
2023-02-14T22:38:30.052Z,101135.44
2023-02-14T22:40:57.761Z,101132.78
2023-02-14T22:43:25.364Z,101132.59
2023-02-14T22:45:52.842Z,101125.72
2023-02-14T22:48:21.661Z,101122.25
2023-02-14T22:50:49.161Z,101131.94
2023-02-14T22:53:16.660Z,101127.66
2023-02-14T22:55:44.270Z,101117.09
2023-02-14T22:58:11.743Z,101120.53
2023-02-14T23:00:39.240Z,101109.94
2023-02-14T23:03:06.833Z,101116.03
2023-02-14T23:05:35.712Z,101116.84
2023-02-14T23:08:03.222Z,101110.59
2023-02-14T23:10:30.711Z,101112.53
2023-02-14T23:13:15.882Z,101111.56
2023-02-14T23:16:01.212Z,101114.19
2023-02-14T23:18:46.937Z,101111.56
2023-02-14T23:21:33.234Z,101114.06
2023-02-14T23:24:00.773Z,101116.72
2023-02-14T23:26:28.272Z,101116.97
2023-02-14T23:28:55.780Z,101117.78
2023-02-14T23:31:23.382Z,101121.56
2023-02-14T23:33:51.984Z,101118.19
2023-02-14T23:36:20.792Z,101113.75
2023-02-14T23:38:52.663Z,101114.75
2023-02-14T23:41:37.810Z,101112.16
2023-02-14T23:44:05.521Z,101103.44
2023-02-14T23:46:32.995Z,101105.97
2023-02-14T23:49:00.484Z,101110.22
2023-02-14T23:51:29.268Z,101104.91
2023-02-14T23:53:56.734Z,101097.81
2023-02-14T23:56:24.642Z,101100.44
2023-02-14T23:58:52.102Z,101095.16
